航空気象通報

ウインドサーファーのための航空気象通報による風予報です。

7/26-27の航空気象通報(国内、海外)

2009年07月26日 23時04分52秒 | TAF
羽田空港
TAF RJTT 260843Z 2609/2712 19016KT 9999 FEW030
日本時間26日18時-27日21時:190度から16ノットの風


那覇空港
TAF ROAH 260839Z 2609/2712 20008KT 9999 FEW015 SCT025
日本時間26日18時-27日21時:200度から8ノットの風


マウイのカフルイ空港
PHOG 261135Z 2612/2712 07008KT P6SM FEW050 SCT180
FM262000 07016G23KT P6SM FEW050 SCT180
FM270600 07010KT P6SM FEW050
ハワイ時間26日02-10時:070度から8ノットの風
10-20時:070度から16ノット、突風23ノット
20時-27日02時:070度から10ノットの風


サイパン空港
PGSN 261120Z 2612/2712 28006KT P6SM -SHRA VCTS SCT018CB BKN040 OVC080
TEMPO 2612/2616 6SM TSRA SCT016CB BKN030
FM261600 26007KT P6SM -RA SCT020 OVC080
TEMPO 2616/2620 -SHRA BKN017CB
FM262100 24009KT P6SM VCSH SCT020 OVC100
マリアナ時間26日22時-27日02時:280度から6ノットの風
02-07時:260度から7ノットの風
07-22時:240度から9ノットの風
コメント

7/25-26の航空気象通報(国内、海外)

2009年07月25日 22時06分11秒 | TAF
羽田空港
TAF RJTT 250840Z 2509/2612 20018KT 9999 FEW030
TEMPO 2509/2514 20020G32KT
日本時間25日18時-26日21時:200度から18ノットの風
但し、24日18-23時の間:一時、200度から20ノット、突風30ノット


那覇空港
TAF ROAH 250841Z 2509/2612 19012KT 9999 FEW015 SCT030
日本時間25日18時-26日21時:190度から12ノットの風


マウイのカフルイ空港
PHOG 251121Z 2512/2612 VRB04KT P6SM FEW035 SCT050
FM252000 06014KT P6SM FEW035 SCT050
FM252200 04018G25KT P6SM FEW050
FM260400 04013KT P6SM FEW030 SCT050
FM260800 04008KT P6SM SCT035 BKN050
ハワイ時間25日02-10時:風向不定4ノットの風
10-12時:060度から14ノットの風
12-18時:040度から18ノット、突風25ノット
18-22時:040度から13ノットの風
22時-26日02時:040度から8ノットの風


サイパン空港
TAFPQ TAF AMD PGSN 251212Z 2512/2612 32009KT P6SM VCSH SCT020
TEMPO 2512/2515 3SM SHRA SCT010CB BKN020 OVC030
マリアナ時間25日22時-26日22時:320度から9ノットの風

但し、25日22時-26日01時の間:一時、
コメント

7/24-25の航空気象通報(国内、海外)

2009年07月24日 22時38分04秒 | TAF
羽田空港
TAF RJTT 240836Z 2409/2512 18016KT 9999 FEW008 SCT012 BKN020
TEMPO 2409/2411 20020G30KT 1500 +SHRA BR BKN007 BKN015
TEMPO 2411/2413 20020G30KT 3000 SHRA BR FEW005 BKN009 BKN020
日本時間24日18時-25日21時:180度から16ノットの風

但し、24日18-20時の間:一時、200度から20ノット、突風30ノット、
但し、24日20-22時の間:一時、200度から20ノット、突風30ノット、

那覇空港
TAF ROAH 240840Z 2409/2512 20012KT 9999 FEW015
日本時間24日18時-25日21時:200度から12ノットの風


マウイのカフルイ空港
PHOG 241132Z 2412/2512 10005KT P6SM FEW050
FM241900 05013KT P6SM FEW025 SCT050
FM250500 06010KT P6SM FEW025 SCT050
FM250800 11005KT P6SM FEW050
ハワイ時間24日02-09時:100度から5ノットの風
09-19時:050度から13ノットの風
19-22時:060度から10ノットの風
22時-25日02時:110度から5ノットの風


サイパン空港
PGSN 241120Z 2412/2512 VRB04KT P6SM VCSH FEW020
FM242300 01008KT P6SM VCSH SCT020
マリアナ時間24日22時-25日22時:風向不定4ノットの風

コメント

7/22-23の航空気象通報(国内、海外)

2009年07月22日 22時25分26秒 | TAF
羽田空港
TAF AMD RJTT 220932Z 2209/2312 20016KT 8000 FEW008 BKN015 BKN035
TEMPO 2209/2213 FEW005 BKN007 BKN015
TEMPO 2213/2215 3500 -SHRA BR FEW005 BKN007 BKN012
TEMPO 2215/2221 2500 SHRA BR FEW005 BKN007 BKN012
BECMG 2218/2221 12008KT
BECMG 2303/2306 18012KT
日本時間22日18時-23日03時:200度から16ノットの風
03-06時:風が変化
06-12時:120度から8ノットの風
12-15時:風が変化
12-21時:180度から12ノットの風

但し、22日22時-23日06時の間:一時、

那覇空港
TAF ROAH 220835Z 2209/2312 25011KT 9999 FEW015
日本時間22日18時-23日21時:250度から11ノットの風


マウイのカフルイ空港
PHOG 221133Z 2212/2312 05010KT P6SM FEW070
FM222000 05018G28KT P6SM FEW040 SCT070
FM230600 05014KT P6SM FEW040 SCT060
FM230900 05010KT P6SM FEW030 SCT050
ハワイ時間22日02-10時:050度から10ノットの風
10-20時:050度から18ノット、突風28ノット
20-23時:050度から14ノットの風
23時-23日02時:050度から10ノットの風


サイパン空港
PGSN 221120Z 2212/2312 VRB05KT P6SM VCSH SCT020
マリアナ時間22日22時-23日22時:風向不定5ノットの風

コメント

7/21-22の航空気象通報(国内、海外)

2009年07月21日 23時28分37秒 | TAF
壁紙のように
明日は南西諸島で日食なので奄美大島空港の予報も調べようと
思ったのですが、奄美は国際空港じゃないので24時間予報は
出てませんでした。というわけでいつもの予報のみです。

羽田空港
TAF AMD RJTT 211237Z 2112/2212 20016KT 9999 FEW006 SCT009 BKN015
TEMPO 2112/2115 3000 SHRA BR FEW005 BKN007 BKN015

但し、21日21-24時の間:一時、

那覇空港
TAF ROAH 210841Z 2109/2212 24011KT 9999 FEW015
日本時間21日18時-21日21時:240度から11ノットの風


マウイのカフルイ空港
PHOG 211126Z 2112/2212 04010KT P6SM SCT030
FM212000 04016G28KT P6SM SCT035
FM220600 04010KT P6SM SCT030
ハワイ時間21日02-10時:040度から10ノットの風
10-20時:040度から16ノット、突風28ノット
20時-22日02時:040度から10ノットの風


サイパン空港
PGSN 211133Z 2112/2212 26009KT P6SM VCSH SCT020 BKN150
マリアナ時間21日22時-22日22時:260度から9ノットの風
コメント